sensor_id;sensor_type;location;lat;lon;timestamp;temperature;humidity
3348;DHT22;1687;49.540;8.574;2023-02-28T00:00:39;2.40;48.80
3348;DHT22;1687;49.540;8.574;2023-02-28T00:03:05;2.40;49.10
3348;DHT22;1687;49.540;8.574;2023-02-28T00:05:31;2.40;49.00
3348;DHT22;1687;49.540;8.574;2023-02-28T00:07:57;2.40;49.10
3348;DHT22;1687;49.540;8.574;2023-02-28T00:10:25;2.50;49.20
3348;DHT22;1687;49.540;8.574;2023-02-28T00:12:54;2.40;49.00
3348;DHT22;1687;49.540;8.574;2023-02-28T00:15:22;2.30;49.00
3348;DHT22;1687;49.540;8.574;2023-02-28T00:17:48;2.20;49.20
3348;DHT22;1687;49.540;8.574;2023-02-28T00:20:14;2.20;49.30
3348;DHT22;1687;49.540;8.574;2023-02-28T00:22:43;2.20;49.40
3348;DHT22;1687;49.540;8.574;2023-02-28T00:25:15;2.20;49.50
3348;DHT22;1687;49.540;8.574;2023-02-28T00:27:42;2.30;49.70
3348;DHT22;1687;49.540;8.574;2023-02-28T00:30:15;2.30;49.70
3348;DHT22;1687;49.540;8.574;2023-02-28T00:32:43;2.40;49.80
3348;DHT22;1687;49.540;8.574;2023-02-28T00:35:09;2.40;49.80
3348;DHT22;1687;49.540;8.574;2023-02-28T00:37:36;2.30;49.80
3348;DHT22;1687;49.540;8.574;2023-02-28T00:40:03;2.30;49.80
3348;DHT22;1687;49.540;8.574;2023-02-28T00:42:33;2.20;49.80
3348;DHT22;1687;49.540;8.574;2023-02-28T00:44:59;2.10;49.80
3348;DHT22;1687;49.540;8.574;2023-02-28T00:47:25;2.10;49.90
3348;DHT22;1687;49.540;8.574;2023-02-28T00:49:51;2.00;49.90
3348;DHT22;1687;49.540;8.574;2023-02-28T00:52:17;2.00;50.10
3348;DHT22;1687;49.540;8.574;2023-02-28T00:54:42;1.90;50.00
3348;DHT22;1687;49.540;8.574;2023-02-28T00:57:08;1.90;50.00
3348;DHT22;1687;49.540;8.574;2023-02-28T00:59:34;1.80;50.00
3348;DHT22;1687;49.540;8.574;2023-02-28T01:02:00;1.70;50.10
3348;DHT22;1687;49.540;8.574;2023-02-28T01:04:25;1.80;50.40
3348;DHT22;1687;49.540;8.574;2023-02-28T01:06:51;1.80;50.50
3348;DHT22;1687;49.540;8.574;2023-02-28T01:09:17;1.70;50.40
3348;DHT22;1687;49.540;8.574;2023-02-28T01:11:43;1.70;50.50
3348;DHT22;1687;49.540;8.574;2023-02-28T01:14:12;1.60;50.40
3348;DHT22;1687;49.540;8.574;2023-02-28T01:16:39;1.50;50.40
3348;DHT22;1687;49.540;8.574;2023-02-28T01:19:05;1.50;50.60
3348;DHT22;1687;49.540;8.574;2023-02-28T01:21:30;1.40;50.60
3348;DHT22;1687;49.540;8.574;2023-02-28T01:23:57;1.40;50.80
3348;DHT22;1687;49.540;8.574;2023-02-28T01:26:24;1.40;51.00
3348;DHT22;1687;49.540;8.574;2023-02-28T01:28:51;1.40;50.90
3348;DHT22;1687;49.540;8.574;2023-02-28T01:31:17;1.40;50.90
3348;DHT22;1687;49.540;8.574;2023-02-28T01:33:44;1.30;50.70
3348;DHT22;1687;49.540;8.574;2023-02-28T01:36:18;1.10;50.70
3348;DHT22;1687;49.540;8.574;2023-02-28T01:38:46;1.10;51.00
3348;DHT22;1687;49.540;8.574;2023-02-28T01:41:17;1.20;51.30
3348;DHT22;1687;49.540;8.574;2023-02-28T01:46:11;1.20;51.50
3348;DHT22;1687;49.540;8.574;2023-02-28T01:48:46;1.20;51.40
3348;DHT22;1687;49.540;8.574;2023-02-28T01:51:39;1.20;51.60
3348;DHT22;1687;49.540;8.574;2023-02-28T01:54:24;1.20;51.60
3348;DHT22;1687;49.540;8.574;2023-02-28T01:56:58;1.20;51.60
3348;DHT22;1687;49.540;8.574;2023-02-28T01:59:41;1.20;51.60
3348;DHT22;1687;49.540;8.574;2023-02-28T02:02:15;1.20;51.90
3348;DHT22;1687;49.540;8.574;2023-02-28T02:04:55;1.20;51.80
3348;DHT22;1687;49.540;8.574;2023-02-28T02:07:23;1.30;52.00
3348;DHT22;1687;49.540;8.574;2023-02-28T02:09:50;1.20;51.80
3348;DHT22;1687;49.540;8.574;2023-02-28T02:15:59;1.30;52.20
3348;DHT22;1687;49.540;8.574;2023-02-28T02:18:47;1.40;52.40
3348;DHT22;1687;49.540;8.574;2023-02-28T02:33:10;1.40;52.50
3348;DHT22;1687;49.540;8.574;2023-02-28T02:36:01;1.40;52.50
3348;DHT22;1687;49.540;8.574;2023-02-28T02:38:52;1.40;52.60
3348;DHT22;1687;49.540;8.574;2023-02-28T02:41:35;1.40;52.60
3348;DHT22;1687;49.540;8.574;2023-02-28T02:47:26;1.40;52.60
3348;DHT22;1687;49.540;8.574;2023-02-28T02:49:57;1.40;52.70
3348;DHT22;1687;49.540;8.574;2023-02-28T02:52:33;1.50;52.90
3348;DHT22;1687;49.540;8.574;2023-02-28T02:55:03;1.50;52.90
3348;DHT22;1687;49.540;8.574;2023-02-28T02:57:35;1.50;53.00
3348;DHT22;1687;49.540;8.574;2023-02-28T03:00:05;1.50;52.90
3348;DHT22;1687;49.540;8.574;2023-02-28T03:02:35;1.50;52.90
3348;DHT22;1687;49.540;8.574;2023-02-28T03:05:06;1.50;53.00
3348;DHT22;1687;49.540;8.574;2023-02-28T03:07:38;1.50;53.10
3348;DHT22;1687;49.540;8.574;2023-02-28T03:10:27;1.50;53.10
3348;DHT22;1687;49.540;8.574;2023-02-28T03:21:47;1.60;53.40
3348;DHT22;1687;49.540;8.574;2023-02-28T03:26:58;1.60;53.30
3348;DHT22;1687;49.540;8.574;2023-02-28T03:29:44;1.50;53.20
3348;DHT22;1687;49.540;8.574;2023-02-28T03:32:20;1.40;53.30
3348;DHT22;1687;49.540;8.574;2023-02-28T03:35:14;1.50;53.50
3348;DHT22;1687;49.540;8.574;2023-02-28T03:37:53;1.50;53.60
3348;DHT22;1687;49.540;8.574;2023-02-28T03:40:25;1.50;53.60
3348;DHT22;1687;49.540;8.574;2023-02-28T03:42:58;1.50;53.60
3348;DHT22;1687;49.540;8.574;2023-02-28T03:45:30;1.50;53.60
3348;DHT22;1687;49.540;8.574;2023-02-28T03:48:02;1.40;53.50
3348;DHT22;1687;49.540;8.574;2023-02-28T03:50:41;1.40;53.70
3348;DHT22;1687;49.540;8.574;2023-02-28T03:53:14;1.50;53.80
3348;DHT22;1687;49.540;8.574;2023-02-28T03:55:49;1.40;53.70
3348;DHT22;1687;49.540;8.574;2023-02-28T04:03:54;1.30;53.80
3348;DHT22;1687;49.540;8.574;2023-02-28T04:06:22;1.30;53.80
3348;DHT22;1687;49.540;8.574;2023-02-28T04:08:48;1.30;53.80
3348;DHT22;1687;49.540;8.574;2023-02-28T04:11:18;1.30;54.00
3348;DHT22;1687;49.540;8.574;2023-02-28T04:13:46;1.30;54.00
3348;DHT22;1687;49.540;8.574;2023-02-28T04:16:12;1.30;54.00
3348;DHT22;1687;49.540;8.574;2023-02-28T04:18:38;1.30;54.00
3348;DHT22;1687;49.540;8.574;2023-02-28T04:21:06;1.30;54.10
3348;DHT22;1687;49.540;8.574;2023-02-28T04:23:32;1.30;54.10
3348;DHT22;1687;49.540;8.574;2023-02-28T04:25:58;1.30;54.10
3348;DHT22;1687;49.540;8.574;2023-02-28T04:28:24;1.30;54.20
3348;DHT22;1687;49.540;8.574;2023-02-28T04:30:58;1.30;54.20
3348;DHT22;1687;49.540;8.574;2023-02-28T04:33:25;1.30;54.10
3348;DHT22;1687;49.540;8.574;2023-02-28T04:36:05;1.20;54.20
3348;DHT22;1687;49.540;8.574;2023-02-28T04:38:34;1.20;54.20
3348;DHT22;1687;49.540;8.574;2023-02-28T04:41:02;1.20;54.40
3348;DHT22;1687;49.540;8.574;2023-02-28T04:43:28;1.30;54.40
3348;DHT22;1687;49.540;8.574;2023-02-28T04:45:56;1.20;54.20
3348;DHT22;1687;49.540;8.574;2023-02-28T04:48:27;1.20;54.20
3348;DHT22;1687;49.540;8.574;2023-02-28T04:50:54;1.20;54.30
3348;DHT22;1687;49.540;8.574;2023-02-28T04:53:20;1.10;54.30
3348;DHT22;1687;49.540;8.574;2023-02-28T04:55:46;1.10;54.30
3348;DHT22;1687;49.540;8.574;2023-02-28T04:58:13;1.10;54.40
3348;DHT22;1687;49.540;8.574;2023-02-28T05:00:39;1.10;54.50
3348;DHT22;1687;49.540;8.574;2023-02-28T05:03:04;1.10;54.50
3348;DHT22;1687;49.540;8.574;2023-02-28T05:05:30;1.10;54.50
3348;DHT22;1687;49.540;8.574;2023-02-28T05:07:56;1.10;54.60
3348;DHT22;1687;49.540;8.574;2023-02-28T05:10:24;1.10;54.60
3348;DHT22;1687;49.540;8.574;2023-02-28T05:12:50;1.10;54.60
3348;DHT22;1687;49.540;8.574;2023-02-28T05:15:16;1.10;54.60
3348;DHT22;1687;49.540;8.574;2023-02-28T05:17:43;1.10;54.70
3348;DHT22;1687;49.540;8.574;2023-02-28T05:20:09;1.10;54.70
3348;DHT22;1687;49.540;8.574;2023-02-28T05:22:41;1.10;54.80
3348;DHT22;1687;49.540;8.574;2023-02-28T05:25:11;1.10;54.90
3348;DHT22;1687;49.540;8.574;2023-02-28T05:27:42;1.10;55.30
3348;DHT22;1687;49.540;8.574;2023-02-28T05:30:08;1.10;54.80
3348;DHT22;1687;49.540;8.574;2023-02-28T05:32:36;1.10;54.90
3348;DHT22;1687;49.540;8.574;2023-02-28T05:35:03;1.20;54.90
3348;DHT22;1687;49.540;8.574;2023-02-28T05:37:29;1.20;55.00
3348;DHT22;1687;49.540;8.574;2023-02-28T05:39:55;1.20;54.90
3348;DHT22;1687;49.540;8.574;2023-02-28T05:42:20;1.20;55.00
3348;DHT22;1687;49.540;8.574;2023-02-28T05:44:46;1.20;55.10
3348;DHT22;1687;49.540;8.574;2023-02-28T05:47:12;1.30;55.20
3348;DHT22;1687;49.540;8.574;2023-02-28T05:49:41;1.30;55.10
3348;DHT22;1687;49.540;8.574;2023-02-28T05:52:07;1.40;55.30
3348;DHT22;1687;49.540;8.574;2023-02-28T05:54:33;1.40;55.20
3348;DHT22;1687;49.540;8.574;2023-02-28T05:56:59;1.50;55.20
3348;DHT22;1687;49.540;8.574;2023-02-28T05:59:24;1.50;55.30
3348;DHT22;1687;49.540;8.574;2023-02-28T06:01:50;1.60;55.40
3348;DHT22;1687;49.540;8.574;2023-02-28T06:04:19;1.60;55.40
3348;DHT22;1687;49.540;8.574;2023-02-28T06:06:50;1.60;55.40
3348;DHT22;1687;49.540;8.574;2023-02-28T06:09:16;1.60;55.30
3348;DHT22;1687;49.540;8.574;2023-02-28T06:11:42;1.60;55.40
3348;DHT22;1687;49.540;8.574;2023-02-28T06:14:15;1.60;55.40
3348;DHT22;1687;49.540;8.574;2023-02-28T06:16:42;1.50;55.30
3348;DHT22;1687;49.540;8.574;2023-02-28T06:19:09;1.50;55.40
3348;DHT22;1687;49.540;8.574;2023-02-28T06:21:35;1.40;55.20
3348;DHT22;1687;49.540;8.574;2023-02-28T06:24:01;1.40;55.30
3348;DHT22;1687;49.540;8.574;2023-02-28T06:26:28;1.30;55.30
3348;DHT22;1687;49.540;8.574;2023-02-28T06:28:54;1.30;55.40
3348;DHT22;1687;49.540;8.574;2023-02-28T06:31:20;1.30;55.40
3348;DHT22;1687;49.540;8.574;2023-02-28T06:33:47;1.30;55.40
3348;DHT22;1687;49.540;8.574;2023-02-28T06:36:15;1.30;55.50
3348;DHT22;1687;49.540;8.574;2023-02-28T06:38:42;1.30;55.50
3348;DHT22;1687;49.540;8.574;2023-02-28T06:41:08;1.30;55.50
3348;DHT22;1687;49.540;8.574;2023-02-28T06:43:37;1.40;55.70
3348;DHT22;1687;49.540;8.574;2023-02-28T06:46:07;1.40;55.60
3348;DHT22;1687;49.540;8.574;2023-02-28T06:48:35;1.40;55.70
3348;DHT22;1687;49.540;8.574;2023-02-28T06:51:02;1.40;55.60
3348;DHT22;1687;49.540;8.574;2023-02-28T06:53:30;1.40;55.70
3348;DHT22;1687;49.540;8.574;2023-02-28T06:55:55;1.50;55.90
3348;DHT22;1687;49.540;8.574;2023-02-28T06:58:21;1.50;55.80
3348;DHT22;1687;49.540;8.574;2023-02-28T07:00:51;1.60;56.00
3348;DHT22;1687;49.540;8.574;2023-02-28T07:03:17;1.70;55.90
3348;DHT22;1687;49.540;8.574;2023-02-28T07:05:44;1.70;56.00
3348;DHT22;1687;49.540;8.574;2023-02-28T07:08:10;1.70;55.80
3348;DHT22;1687;49.540;8.574;2023-02-28T07:10:39;1.80;56.00
3348;DHT22;1687;49.540;8.574;2023-02-28T07:13:06;1.90;56.10
3348;DHT22;1687;49.540;8.574;2023-02-28T07:15:34;2.00;56.10
3348;DHT22;1687;49.540;8.574;2023-02-28T07:18:00;2.10;56.10
3348;DHT22;1687;49.540;8.574;2023-02-28T07:20:26;2.20;56.10
3348;DHT22;1687;49.540;8.574;2023-02-28T07:22:52;2.30;56.20
3348;DHT22;1687;49.540;8.574;2023-02-28T07:25:28;2.40;56.30
3348;DHT22;1687;49.540;8.574;2023-02-28T07:27:55;2.50;56.30
3348;DHT22;1687;49.540;8.574;2023-02-28T07:30:22;2.60;56.40
3348;DHT22;1687;49.540;8.574;2023-02-28T07:32:47;2.80;56.50
3348;DHT22;1687;49.540;8.574;2023-02-28T07:35:13;2.90;56.40
3348;DHT22;1687;49.540;8.574;2023-02-28T07:37:41;3.00;56.30
3348;DHT22;1687;49.540;8.574;2023-02-28T07:40:09;3.00;56.30
3348;DHT22;1687;49.540;8.574;2023-02-28T07:42:40;3.10;56.40
3348;DHT22;1687;49.540;8.574;2023-02-28T07:45:07;3.20;56.40
3348;DHT22;1687;49.540;8.574;2023-02-28T07:47:34;3.30;56.30
3348;DHT22;1687;49.540;8.574;2023-02-28T07:49:59;3.40;56.40
3348;DHT22;1687;49.540;8.574;2023-02-28T07:52:25;3.50;56.40
3348;DHT22;1687;49.540;8.574;2023-02-28T07:54:51;3.50;56.30
3348;DHT22;1687;49.540;8.574;2023-02-28T07:57:17;3.60;56.40
3348;DHT22;1687;49.540;8.574;2023-02-28T07:59:43;3.70;56.40
3348;DHT22;1687;49.540;8.574;2023-02-28T08:02:14;3.70;56.20
3348;DHT22;1687;49.540;8.574;2023-02-28T08:04:40;3.70;56.30
3348;DHT22;1687;49.540;8.574;2023-02-28T08:07:06;3.90;56.30
3348;DHT22;1687;49.540;8.574;2023-02-28T08:09:33;3.90;56.20
3348;DHT22;1687;49.540;8.574;2023-02-28T08:11:59;4.00;56.50
3348;DHT22;1687;49.540;8.574;2023-02-28T08:14:25;4.00;56.20
3348;DHT22;1687;49.540;8.574;2023-02-28T08:16:51;4.10;56.20
3348;DHT22;1687;49.540;8.574;2023-02-28T08:19:16;4.10;56.10
3348;DHT22;1687;49.540;8.574;2023-02-28T08:21:42;4.10;56.10
3348;DHT22;1687;49.540;8.574;2023-02-28T08:24:08;4.10;55.90
3348;DHT22;1687;49.540;8.574;2023-02-28T08:26:33;3.90;55.60
3348;DHT22;1687;49.540;8.574;2023-02-28T08:28:59;3.80;55.80
3348;DHT22;1687;49.540;8.574;2023-02-28T08:31:25;3.70;55.70
3348;DHT22;1687;49.540;8.574;2023-02-28T08:33:50;3.70;55.80
3348;DHT22;1687;49.540;8.574;2023-02-28T08:36:19;3.80;56.00
3348;DHT22;1687;49.540;8.574;2023-02-28T08:38:45;3.70;55.70
3348;DHT22;1687;49.540;8.574;2023-02-28T08:41:12;3.70;55.70
3348;DHT22;1687;49.540;8.574;2023-02-28T08:43:39;3.80;55.90
3348;DHT22;1687;49.540;8.574;2023-02-28T08:46:06;3.90;55.90
3348;DHT22;1687;49.540;8.574;2023-02-28T08:48:34;4.00;55.90
3348;DHT22;1687;49.540;8.574;2023-02-28T08:51:09;4.10;55.80
3348;DHT22;1687;49.540;8.574;2023-02-28T08:53:37;4.20;55.90
3348;DHT22;1687;49.540;8.574;2023-02-28T08:56:07;4.30;56.00
3348;DHT22;1687;49.540;8.574;2023-02-28T08:58:35;4.40;55.90
3348;DHT22;1687;49.540;8.574;2023-02-28T09:01:06;4.50;55.90
3348;DHT22;1687;49.540;8.574;2023-02-28T09:03:33;4.60;55.90
3348;DHT22;1687;49.540;8.574;2023-02-28T09:06:00;4.70;55.90
3348;DHT22;1687;49.540;8.574;2023-02-28T09:08:27;4.80;55.80
3348;DHT22;1687;49.540;8.574;2023-02-28T09:10:55;4.90;55.80
3348;DHT22;1687;49.540;8.574;2023-02-28T09:13:23;4.90;55.50
3348;DHT22;1687;49.540;8.574;2023-02-28T09:15:50;4.90;55.50
3348;DHT22;1687;49.540;8.574;2023-02-28T09:18:16;5.00;55.60
3348;DHT22;1687;49.540;8.574;2023-02-28T09:20:42;5.10;55.50
3348;DHT22;1687;49.540;8.574;2023-02-28T09:23:11;5.20;55.50
3348;DHT22;1687;49.540;8.574;2023-02-28T09:25:38;5.30;55.40
3348;DHT22;1687;49.540;8.574;2023-02-28T09:28:10;5.40;55.50
3348;DHT22;1687;49.540;8.574;2023-02-28T09:30:37;5.50;55.40
3348;DHT22;1687;49.540;8.574;2023-02-28T09:33:03;5.50;55.20
3348;DHT22;1687;49.540;8.574;2023-02-28T09:35:29;5.50;55.10
3348;DHT22;1687;49.540;8.574;2023-02-28T09:37:56;5.70;55.20
3348;DHT22;1687;49.540;8.574;2023-02-28T09:40:24;5.70;55.00
3348;DHT22;1687;49.540;8.574;2023-02-28T09:42:53;5.70;55.00
3348;DHT22;1687;49.540;8.574;2023-02-28T09:47:50;5.90;54.80
3348;DHT22;1687;49.540;8.574;2023-02-28T09:52:53;6.10;54.80
3348;DHT22;1687;49.540;8.574;2023-02-28T09:55:33;6.20;54.70
3348;DHT22;1687;49.540;8.574;2023-02-28T09:58:02;6.20;54.40
3348;DHT22;1687;49.540;8.574;2023-02-28T10:00:33;6.30;54.70
3348;DHT22;1687;49.540;8.574;2023-02-28T10:06:14;6.40;54.40
3348;DHT22;1687;49.540;8.574;2023-02-28T10:08:55;6.50;54.20
3348;DHT22;1687;49.540;8.574;2023-02-28T10:11:25;6.50;54.10
3348;DHT22;1687;49.540;8.574;2023-02-28T10:14:02;6.50;54.10
3348;DHT22;1687;49.540;8.574;2023-02-28T10:16:48;6.70;54.10
3348;DHT22;1687;49.540;8.574;2023-02-28T10:22:38;6.80;54.00
3348;DHT22;1687;49.540;8.574;2023-02-28T10:25:23;6.80;53.60
3348;DHT22;1687;49.540;8.574;2023-02-28T10:27:53;6.80;53.70
3348;DHT22;1687;49.540;8.574;2023-02-28T10:30:22;6.80;53.70
3348;DHT22;1687;49.540;8.574;2023-02-28T10:32:52;6.70;53.10
3348;DHT22;1687;49.540;8.574;2023-02-28T10:35:23;6.50;53.00
3348;DHT22;1687;49.540;8.574;2023-02-28T10:37:54;6.50;53.20
3348;DHT22;1687;49.540;8.574;2023-02-28T10:42:57;6.50;53.00
3348;DHT22;1687;49.540;8.574;2023-02-28T10:45:25;6.60;53.10
3348;DHT22;1687;49.540;8.574;2023-02-28T10:48:01;6.70;53.20
3348;DHT22;1687;49.540;8.574;2023-02-28T10:53:28;7.10;53.10
3348;DHT22;1687;49.540;8.574;2023-02-28T10:56:14;7.20;53.00
3348;DHT22;1687;49.540;8.574;2023-02-28T10:58:55;7.30;52.90
3348;DHT22;1687;49.540;8.574;2023-02-28T11:03:57;7.50;52.70
3348;DHT22;1687;49.540;8.574;2023-02-28T11:06:31;7.60;52.90
3348;DHT22;1687;49.540;8.574;2023-02-28T11:09:01;7.60;52.60
3348;DHT22;1687;49.540;8.574;2023-02-28T11:11:31;7.60;52.50
3348;DHT22;1687;49.540;8.574;2023-02-28T11:14:19;7.60;52.50
3348;DHT22;1687;49.540;8.574;2023-02-28T11:16:47;7.70;52.50
3348;DHT22;1687;49.540;8.574;2023-02-28T11:19:40;7.70;52.20
3348;DHT22;1687;49.540;8.574;2023-02-28T11:22:21;7.50;51.90
3348;DHT22;1687;49.540;8.574;2023-02-28T11:24:52;7.30;51.80
3348;DHT22;1687;49.540;8.574;2023-02-28T11:27:50;7.20;52.00
3348;DHT22;1687;49.540;8.574;2023-02-28T11:30:25;7.20;51.90
3348;DHT22;1687;49.540;8.574;2023-02-28T11:32:56;7.10;51.60
3348;DHT22;1687;49.540;8.574;2023-02-28T11:35:49;6.90;51.40
3348;DHT22;1687;49.540;8.574;2023-02-28T11:38:15;6.80;51.30
3348;DHT22;1687;49.540;8.574;2023-02-28T11:41:02;6.90;51.60
3348;DHT22;1687;49.540;8.574;2023-02-28T11:43:43;7.10;51.60
3348;DHT22;1687;49.540;8.574;2023-02-28T11:46:40;7.20;51.60
3348;DHT22;1687;49.540;8.574;2023-02-28T11:54:56;7.50;51.40
3348;DHT22;1687;49.540;8.574;2023-02-28T11:57:48;7.60;51.30
3348;DHT22;1687;49.540;8.574;2023-02-28T12:00:54;7.60;51.10
3348;DHT22;1687;49.540;8.574;2023-02-28T12:09:33;8.00;51.20
3348;DHT22;1687;49.540;8.574;2023-02-28T12:15:27;8.40;51.10
3348;DHT22;1687;49.540;8.574;2023-02-28T12:24:06;8.70;50.90
3348;DHT22;1687;49.540;8.574;2023-02-28T12:26:50;8.70;50.80
3348;DHT22;1687;49.540;8.574;2023-02-28T12:29:26;8.70;50.80
3348;DHT22;1687;49.540;8.574;2023-02-28T12:32:06;8.80;50.80
3348;DHT22;1687;49.540;8.574;2023-02-28T12:34:50;8.70;50.40
3348;DHT22;1687;49.540;8.574;2023-02-28T12:37:22;8.70;50.50
3348;DHT22;1687;49.540;8.574;2023-02-28T12:40:01;8.70;50.60
3348;DHT22;1687;49.540;8.574;2023-02-28T12:42:36;8.80;50.50
3348;DHT22;1687;49.540;8.574;2023-02-28T12:45:18;8.80;50.50
3348;DHT22;1687;49.540;8.574;2023-02-28T12:47:49;8.80;50.10
3348;DHT22;1687;49.540;8.574;2023-02-28T12:50:18;8.70;50.10
3348;DHT22;1687;49.540;8.574;2023-02-28T12:52:51;8.60;50.20
3348;DHT22;1687;49.540;8.574;2023-02-28T12:59:10;8.60;50.00
3348;DHT22;1687;49.540;8.574;2023-02-28T13:10:12;8.30;49.70
3348;DHT22;1687;49.540;8.574;2023-02-28T13:12:50;8.30;49.80
3348;DHT22;1687;49.540;8.574;2023-02-28T13:15:21;8.40;49.70
3348;DHT22;1687;49.540;8.574;2023-02-28T13:17:52;8.40;49.60
3348;DHT22;1687;49.540;8.574;2023-02-28T13:20:34;8.40;49.40
3348;DHT22;1687;49.540;8.574;2023-02-28T13:23:01;8.40;49.60
3348;DHT22;1687;49.540;8.574;2023-02-28T13:28:01;8.40;49.50
3348;DHT22;1687;49.540;8.574;2023-02-28T13:33:27;8.50;49.50
3348;DHT22;1687;49.540;8.574;2023-02-28T13:38:50;8.40;49.30
3348;DHT22;1687;49.540;8.574;2023-02-28T13:49:32;8.50;48.90
3348;DHT22;1687;49.540;8.574;2023-02-28T14:01:16;8.60;49.30
3348;DHT22;1687;49.540;8.574;2023-02-28T14:04:11;8.70;49.10
3348;DHT22;1687;49.540;8.574;2023-02-28T14:06:51;8.80;49.00
3348;DHT22;1687;49.540;8.574;2023-02-28T14:09:25;8.80;48.80
3348;DHT22;1687;49.540;8.574;2023-02-28T14:11:54;8.90;49.00
3348;DHT22;1687;49.540;8.574;2023-02-28T14:17:12;8.90;48.80
3348;DHT22;1687;49.540;8.574;2023-02-28T14:19:40;8.90;48.70
3348;DHT22;1687;49.540;8.574;2023-02-28T14:25:08;9.20;49.00
3348;DHT22;1687;49.540;8.574;2023-02-28T14:28:14;9.40;48.80
3348;DHT22;1687;49.540;8.574;2023-02-28T14:31:15;9.60;49.00
3348;DHT22;1687;49.540;8.574;2023-02-28T14:34:22;9.70;48.90
3348;DHT22;1687;49.540;8.574;2023-02-28T14:36:53;9.80;48.70
3348;DHT22;1687;49.540;8.574;2023-02-28T14:39:24;9.90;48.70
3348;DHT22;1687;49.540;8.574;2023-02-28T14:41:51;10.10;48.00
3348;DHT22;1687;49.540;8.574;2023-02-28T14:44:25;10.30;48.20
3348;DHT22;1687;49.540;8.574;2023-02-28T14:46:56;10.50;48.00
3348;DHT22;1687;49.540;8.574;2023-02-28T14:49:32;10.50;47.80
3348;DHT22;1687;49.540;8.574;2023-02-28T14:54:39;11.00;47.90
3348;DHT22;1687;49.540;8.574;2023-02-28T14:57:05;11.20;48.00
3348;DHT22;1687;49.540;8.574;2023-02-28T14:59:33;11.70;48.20
3348;DHT22;1687;49.540;8.574;2023-02-28T15:02:36;12.20;48.40
3348;DHT22;1687;49.540;8.574;2023-02-28T15:05:22;13.20;48.30
3348;DHT22;1687;49.540;8.574;2023-02-28T15:08:05;14.00;48.40
3348;DHT22;1687;49.540;8.574;2023-02-28T15:10:44;15.00;48.40
3348;DHT22;1687;49.540;8.574;2023-02-28T15:13:15;16.00;48.30
3348;DHT22;1687;49.540;8.574;2023-02-28T15:15:58;16.60;47.80
3348;DHT22;1687;49.540;8.574;2023-02-28T15:18:48;16.90;47.40
3348;DHT22;1687;49.540;8.574;2023-02-28T15:21:25;17.40;47.10
3348;DHT22;1687;49.540;8.574;2023-02-28T15:23:57;17.30;46.20
3348;DHT22;1687;49.540;8.574;2023-02-28T15:26:29;17.30;46.20
3348;DHT22;1687;49.540;8.574;2023-02-28T15:29:05;17.50;46.00
3348;DHT22;1687;49.540;8.574;2023-02-28T15:31:41;17.60;45.80
3348;DHT22;1687;49.540;8.574;2023-02-28T15:34:19;17.90;45.80
3348;DHT22;1687;49.540;8.574;2023-02-28T15:36:47;18.00;45.50
3348;DHT22;1687;49.540;8.574;2023-02-28T15:39:27;18.20;45.20
3348;DHT22;1687;49.540;8.574;2023-02-28T15:42:10;18.60;45.30
3348;DHT22;1687;49.540;8.574;2023-02-28T15:44:37;18.60;44.60
3348;DHT22;1687;49.540;8.574;2023-02-28T15:47:16;18.40;44.30
3348;DHT22;1687;49.540;8.574;2023-02-28T15:50:05;18.50;44.80
3348;DHT22;1687;49.540;8.574;2023-02-28T15:52:41;17.70;43.40
3348;DHT22;1687;49.540;8.574;2023-02-28T15:55:22;16.20;43.20
3348;DHT22;1687;49.540;8.574;2023-02-28T15:57:52;14.90;42.90
3348;DHT22;1687;49.540;8.574;2023-02-28T16:00:22;13.80;42.30
3348;DHT22;1687;49.540;8.574;2023-02-28T16:02:49;12.90;42.50
3348;DHT22;1687;49.540;8.574;2023-02-28T16:05:27;12.20;42.50
3348;DHT22;1687;49.540;8.574;2023-02-28T16:08:17;11.70;42.40
3348;DHT22;1687;49.540;8.574;2023-02-28T16:10:43;11.20;42.40
3348;DHT22;1687;49.540;8.574;2023-02-28T16:13:11;10.90;42.40
3348;DHT22;1687;49.540;8.574;2023-02-28T16:15:42;10.60;42.40
3348;DHT22;1687;49.540;8.574;2023-02-28T16:18:10;10.30;42.20
3348;DHT22;1687;49.540;8.574;2023-02-28T16:20:37;10.00;42.40
3348;DHT22;1687;49.540;8.574;2023-02-28T16:23:03;9.90;43.30
3348;DHT22;1687;49.540;8.574;2023-02-28T16:25:37;9.60;43.10
3348;DHT22;1687;49.540;8.574;2023-02-28T16:28:08;9.40;43.20
3348;DHT22;1687;49.540;8.574;2023-02-28T16:30:41;9.20;43.30
3348;DHT22;1687;49.540;8.574;2023-02-28T16:33:07;9.10;43.30
3348;DHT22;1687;49.540;8.574;2023-02-28T16:35:33;8.90;43.30
3348;DHT22;1687;49.540;8.574;2023-02-28T16:37:59;8.80;43.50
3348;DHT22;1687;49.540;8.574;2023-02-28T16:40:26;8.80;43.80
3348;DHT22;1687;49.540;8.574;2023-02-28T16:42:57;8.80;43.80
3348;DHT22;1687;49.540;8.574;2023-02-28T16:45:28;8.70;43.70
3348;DHT22;1687;49.540;8.574;2023-02-28T16:47:54;8.60;43.80
3348;DHT22;1687;49.540;8.574;2023-02-28T16:50:27;8.60;44.00
3348;DHT22;1687;49.540;8.574;2023-02-28T16:52:54;8.50;43.80
3348;DHT22;1687;49.540;8.574;2023-02-28T16:55:21;8.50;44.00
3348;DHT22;1687;49.540;8.574;2023-02-28T16:57:51;8.40;43.90
3348;DHT22;1687;49.540;8.574;2023-02-28T17:00:18;8.30;44.00
3348;DHT22;1687;49.540;8.574;2023-02-28T17:02:44;8.30;44.70
3348;DHT22;1687;49.540;8.574;2023-02-28T17:05:13;8.20;44.00
3348;DHT22;1687;49.540;8.574;2023-02-28T17:07:42;8.20;44.10
3348;DHT22;1687;49.540;8.574;2023-02-28T17:10:19;8.10;44.10
3348;DHT22;1687;49.540;8.574;2023-02-28T17:12:49;8.10;44.20
3348;DHT22;1687;49.540;8.574;2023-02-28T17:15:16;8.00;44.20
3348;DHT22;1687;49.540;8.574;2023-02-28T17:17:43;7.90;44.20
3348;DHT22;1687;49.540;8.574;2023-02-28T17:20:15;7.80;44.20
3348;DHT22;1687;49.540;8.574;2023-02-28T17:22:42;7.80;44.40
3348;DHT22;1687;49.540;8.574;2023-02-28T17:25:09;7.70;44.40
3348;DHT22;1687;49.540;8.574;2023-02-28T17:27:36;7.70;44.40
3348;DHT22;1687;49.540;8.574;2023-02-28T17:30:25;7.60;44.40
3348;DHT22;1687;49.540;8.574;2023-02-28T17:32:55;7.50;45.00
3348;DHT22;1687;49.540;8.574;2023-02-28T17:35:22;7.50;44.50
3348;DHT22;1687;49.540;8.574;2023-02-28T17:37:48;7.50;44.60
3348;DHT22;1687;49.540;8.574;2023-02-28T17:40:16;7.40;44.60
3348;DHT22;1687;49.540;8.574;2023-02-28T17:42:44;7.30;44.60
3348;DHT22;1687;49.540;8.574;2023-02-28T17:45:10;7.30;44.60
3348;DHT22;1687;49.540;8.574;2023-02-28T17:47:37;7.20;44.50
3348;DHT22;1687;49.540;8.574;2023-02-28T17:50:03;7.10;44.60
3348;DHT22;1687;49.540;8.574;2023-02-28T17:52:29;7.00;44.70
3348;DHT22;1687;49.540;8.574;2023-02-28T17:54:56;6.90;44.60
3348;DHT22;1687;49.540;8.574;2023-02-28T17:57:21;6.80;44.60
3348;DHT22;1687;49.540;8.574;2023-02-28T17:59:47;6.70;44.80
3348;DHT22;1687;49.540;8.574;2023-02-28T18:02:13;6.60;44.80
3348;DHT22;1687;49.540;8.574;2023-02-28T18:04:39;6.50;44.80
3348;DHT22;1687;49.540;8.574;2023-02-28T18:07:11;6.50;44.90
3348;DHT22;1687;49.540;8.574;2023-02-28T18:09:36;6.40;44.90
3348;DHT22;1687;49.540;8.574;2023-02-28T18:12:02;6.30;45.50
3348;DHT22;1687;49.540;8.574;2023-02-28T18:14:28;6.30;45.00
3348;DHT22;1687;49.540;8.574;2023-02-28T18:16:55;6.10;44.80
3348;DHT22;1687;49.540;8.574;2023-02-28T18:19:21;6.00;44.90
3348;DHT22;1687;49.540;8.574;2023-02-28T18:21:49;5.90;45.10
3348;DHT22;1687;49.540;8.574;2023-02-28T18:24:17;5.90;45.20
3348;DHT22;1687;49.540;8.574;2023-02-28T18:26:44;5.80;45.20
3348;DHT22;1687;49.540;8.574;2023-02-28T18:29:25;5.70;45.20
3348;DHT22;1687;49.540;8.574;2023-02-28T18:31:53;5.70;45.30
3348;DHT22;1687;49.540;8.574;2023-02-28T18:34:20;5.70;45.40
3348;DHT22;1687;49.540;8.574;2023-02-28T18:36:47;5.60;45.40
3348;DHT22;1687;49.540;8.574;2023-02-28T18:39:15;5.60;45.60
3348;DHT22;1687;49.540;8.574;2023-02-28T18:41:41;5.60;45.60
3348;DHT22;1687;49.540;8.574;2023-02-28T18:44:07;5.50;45.50
3348;DHT22;1687;49.540;8.574;2023-02-28T18:46:33;5.40;45.60